Etusivu
METAR-TAF:

METAR-TAF

Lentoasemat :

Cherokee County Airport

Jacksonville, Texas, Yhdysvallat

Leveyspiiri: 31-52-09N, Pituuspiiri: 095-13-02W, korkeus merenpinnasta: 206 m

Tämänhetkinen sää

Tämä raportti tehtiin 20 minuuttia sitten, kello 07.55 UTC
Tuuli 11 kn etelästä
Lämpötila 16°C
Kosteus 94%
Ilmanpaine 1018 hPa
Näkyvyys: 16.1 km
Pilvistä 1200 ft:n korkeudessa

METAR: KJSO 220755Z AUTO 17011KT 10SM OVC012 16/15 A3006 RMK AO2 T01650150

Aika: 03:15 (08:15 UTC)


TAF: puuttuu

Säähavainnot ja -ennusteet yli 4000 lentoasemalta (METAR- ja TAF-raportit).

Käytössä olevat sääasemat on merkitty karttaan keltaisilla ja punaisilla pisteillä.

Aseta hiiri pisteen päälle nähdäksesi sääaseman nimen.

Klikkaa sitten nähdäksesi säähavainnot ja -ennusteet.

Kartan vaihtaminen: klikkaa mustalla rastilla varustettuja vihreitä pisteitä, niin voit zoomata sisään; viivalla varustettua vihreää pistettä, niin voit zoomata ulos tai vihreitä nuolia, niin pääset viereisille kartoille.


METAR-TAF: